Time;durP1;ratioP1;P1;durP2;ratioP2;P2;SDS_P1;SDS_P2;PMS_P1;PMS_P2;Temp;Humidity;BMP_temperature;BMP_pressure;BME280_temperature;BME280_humidity;BME280_pressure;Samples;Min_cycle;Max_cycle;Signal;HPM_P1;HPM_P2
2021/07/31 00:01:09;;;;;;;19.63;6.93;;;;;;;;;;5053448;28;39676;-81
2021/07/31 00:03:35;;;;;;;18.50;6.03;;;;;;;;;;5074641;28;39330;-80
2021/07/31 00:06:02;;;;;;;23.38;6.28;;;;;;;;;;5065219;28;37049;-79
2021/07/31 00:08:29;;;;;;;15.73;5.55;;;;;;;;;;5074530;28;39108;-80
2021/07/31 00:10:55;;;;;;;11.57;5.18;;;;;;;;;;5057892;28;37612;-81
2021/07/31 00:13:22;;;;;;;14.48;5.38;;;;;;;;;;5073740;28;39056;-80
2021/07/31 00:15:48;;;;;;;17.05;5.18;;;;;;;;;;5055782;28;35993;-80
2021/07/31 00:18:14;;;;;;;12.43;5.30;;;;;;;;;;5074401;28;38941;-80
2021/07/31 00:20:41;;;;;;;10.40;4.90;;;;;;;;;;5055215;28;39877;-80
2021/07/31 00:23:07;;;;;;;13.45;5.10;;;;;;;;;;5073113;28;37940;-80
2021/07/31 00:25:34;;;;;;;12.13;4.28;;;;;;;;;;5069872;28;37459;-79
2021/07/31 00:28:00;;;;;;;11.52;4.55;;;;;;;;;;5072118;28;39407;-80
2021/07/31 00:30:28;;;;;;;13.35;5.05;;;;;;;;;;5069237;28;47963;-80
2021/07/31 00:32:55;;;;;;;13.15;5.15;;;;;;;;;;5073032;28;38040;-80
2021/07/31 00:35:21;;;;;;;9.57;4.47;;;;;;;;;;5069687;28;35880;-80
2021/07/31 00:37:48;;;;;;;14.57;4.47;;;;;;;;;;5073279;28;39152;-80
2021/07/31 00:40:14;;;;;;;12.32;4.72;;;;;;;;;;5070297;28;38677;-80
2021/07/31 00:42:41;;;;;;;11.38;5.28;;;;;;;;;;5071795;28;38533;-80
2021/07/31 00:45:09;;;;;;;9.65;4.50;;;;;;;;;;5054944;28;36967;-81
2021/07/31 00:47:35;;;;;;;10.68;4.35;;;;;;;;;;5054323;28;41465;-80
2021/07/31 00:50:02;;;;;;;10.80;4.40;;;;;;;;;;5053536;28;39630;-80
2021/07/31 00:52:29;;;;;;;10.90;3.97;;;;;;;;;;5054353;28;36611;-80
2021/07/31 00:54:56;;;;;;;12.52;3.60;;;;;;;;;;5054114;28;37618;-80
2021/07/31 00:57:23;;;;;;;6.05;3.80;;;;;;;;;;5055345;28;39561;-81
2021/07/31 00:59:50;;;;;;;9.93;3.90;;;;;;;;;;5074614;28;38472;-80
2021/07/31 01:02:16;;;;;;;8.48;3.88;;;;;;;;;;5072645;28;39331;-81
2021/07/31 01:04:43;;;;;;;8.85;3.33;;;;;;;;;;5055927;28;37641;-79
2021/07/31 01:07:09;;;;;;;10.55;3.50;;;;;;;;;;5072958;28;38463;-80
2021/07/31 01:09:35;;;;;;;14.93;4.05;;;;;;;;;;5073651;28;38216;-80
2021/07/31 01:12:02;;;;;;;8.90;3.13;;;;;;;;;;5055612;28;36636;-79
2021/07/31 01:14:29;;;;;;;8.82;3.53;;;;;;;;;;5061935;28;37459;-80
2021/07/31 01:16:55;;;;;;;7.03;3.25;;;;;;;;;;5052881;28;40576;-80
2021/07/31 01:19:22;;;;;;;8.27;3.70;;;;;;;;;;5051498;28;39759;-80
2021/07/31 01:21:48;;;;;;;10.52;3.67;;;;;;;;;;5039532;28;38156;-81
2021/07/31 01:24:20;;;;;;;11.82;3.63;;;;;;;;;;5054717;28;36569;-81
2021/07/31 01:26:48;;;;;;;14.35;4.97;;;;;;;;;;5079686;22;39989;-80
2021/07/31 01:29:17;;;;;;;9.82;4.30;;;;;;;;;;5054239;28;39608;-81
2021/07/31 01:31:44;;;;;;;10.75;4.63;;;;;;;;;;5056655;28;37942;-81
2021/07/31 01:34:10;;;;;;;11.32;5.30;;;;;;;;;;5038914;28;38537;-81
2021/07/31 01:36:37;;;;;;;11.10;5.43;;;;;;;;;;5035150;28;40286;-80
2021/07/31 01:39:04;;;;;;;15.60;6.15;;;;;;;;;;5043052;28;39229;-82
2021/07/31 01:41:35;;;;;;;16.38;6.88;;;;;;;;;;5054085;28;37508;-83
2021/07/31 01:44:03;;;;;;;20.63;8.30;;;;;;;;;;5056350;28;35737;-83
2021/07/31 01:46:30;;;;;;;17.05;7.90;;;;;;;;;;5074133;28;46918;-82
2021/07/31 01:49:05;;;;;;;19.75;7.78;;;;;;;;;;5039986;28;39924;-83
2021/07/31 01:51:32;;;;;;;23.52;9.95;;;;;;;;;;5046721;28;46907;-84
2021/07/31 01:53:58;;;;;;;22.85;9.82;;;;;;;;;;5051050;28;36585;-83
2021/07/31 01:56:35;;;;;;;20.20;9.80;;;;;;;;;;5103245;22;39538;-81
2021/07/31 01:59:01;;;;;;;19.05;10.10;;;;;;;;;;5107504;28;38573;-81
2021/07/31 02:01:28;;;;;;;18.20;8.88;;;;;;;;;;5102878;28;49669;-80
2021/07/31 02:04:14;;;;;;;19.00;8.07;;;;;;;;;;5099764;28;36970;-80
2021/07/31 02:06:41;;;;;;;11.05;6.85;;;;;;;;;;5108964;28;47602;-81
2021/07/31 02:09:08;;;;;;;22.35;7.97;;;;;;;;;;5087707;28;39126;-80
2021/07/31 02:11:34;;;;;;;20.75;8.25;;;;;;;;;;5087675;28;37056;-80
2021/07/31 02:14:00;;;;;;;18.08;7.60;;;;;;;;;;5108462;28;37944;-79
2021/07/31 02:16:27;;;;;;;20.92;8.68;;;;;;;;;;5088705;28;39082;-81
2021/07/31 02:18:59;;;;;;;19.48;8.07;;;;;;;;;;5094965;28;39103;-81
2021/07/31 02:21:25;;;;;;;30.13;9.05;;;;;;;;;;5108465;28;39613;-80
2021/07/31 02:23:54;;;;;;;24.05;8.32;;;;;;;;;;5106547;28;37470;-80
2021/07/31 02:26:22;;;;;;;22.17;9.20;;;;;;;;;;5108498;28;40270;-81
2021/07/31 02:28:54;;;;;;;21.05;9.30;;;;;;;;;;5095055;28;38304;-81
2021/07/31 02:31:24;;;;;;;;;;;;;;;;;;5112305;28;38742;-80
2021/07/31 02:33:50;;;;;;;25.90;8.57;;;;;;;;;;5088598;28;36624;-81
2021/07/31 02:36:16;;;;;;;20.73;8.88;;;;;;;;;;5090205;28;37843;-81
2021/07/31 02:38:43;;;;;;;24.80;10.43;;;;;;;;;;5093512;28;37355;-81
2021/07/31 02:41:09;;;;;;;12.80;8.23;;;;;;;;;;5104860;28;37598;-81
2021/07/31 02:43:35;;;;;;;17.42;9.23;;;;;;;;;;5104682;28;38435;-81
2021/07/31 02:46:05;;;;;;;19.80;8.13;;;;;;;;;;5101976;28;39304;-81
2021/07/31 02:48:33;;;;;;;19.48;8.35;;;;;;;;;;5102934;28;38536;-80
2021/07/31 02:51:10;;;;;;;16.00;8.52;;;;;;;;;;5109957;28;39051;-81
2021/07/31 02:53:36;;;;;;;14.05;8.00;;;;;;;;;;5110719;28;48625;-80
2021/07/31 02:56:02;;;;;;;13.68;7.55;;;;;;;;;;5084259;28;38370;-81
2021/07/31 02:58:33;;;;;;;17.42;7.30;;;;;;;;;;5104720;28;38680;-80
2021/07/31 03:01:17;;;;;;;11.77;6.75;;;;;;;;;;5093503;28;38230;-79
2021/07/31 03:03:44;;;;;;;16.48;7.15;;;;;;;;;;5099589;28;46837;-81
2021/07/31 03:06:18;;;;;;;15.02;6.82;;;;;;;;;;5100051;28;37727;-81
2021/07/31 03:08:44;;;;;;;15.35;7.15;;;;;;;;;;5098733;28;37518;-80
2021/07/31 03:11:11;;;;;;;13.93;7.28;;;;;;;;;;5098157;28;39612;-80
2021/07/31 03:13:37;;;;;;;15.63;7.50;;;;;;;;;;5086535;28;36102;-81
2021/07/31 03:16:05;;;;;;;8.38;6.55;;;;;;;;;;5087929;28;39241;-81
2021/07/31 03:18:31;;;;;;;15.30;8.15;;;;;;;;;;5085554;28;39546;-81
2021/07/31 03:21:01;;;;;;;14.52;7.90;;;;;;;;;;5087798;28;38154;-81
2021/07/31 03:23:28;;;;;;;12.80;7.32;;;;;;;;;;5085176;28;47226;-81
2021/07/31 03:26:01;;;;;;;16.00;7.60;;;;;;;;;;5080296;28;37910;-80
2021/07/31 03:28:28;;;;;;;12.15;7.45;;;;;;;;;;5082783;28;46222;-80
2021/07/31 03:31:00;;;;;;;16.10;7.47;;;;;;;;;;5082809;28;37104;-81
2021/07/31 03:33:26;;;;;;;11.57;6.13;;;;;;;;;;5106283;28;36664;-80
2021/07/31 03:35:53;;;;;;;11.23;7.53;;;;;;;;;;5082671;28;39761;-80
2021/07/31 03:38:19;;;;;;;12.82;6.82;;;;;;;;;;5098030;28;37691;-80
2021/07/31 03:40:46;;;;;;;15.27;6.88;;;;;;;;;;5086029;28;38561;-80
2021/07/31 03:43:27;;;;;;;10.32;6.18;;;;;;;;;;5106291;28;36524;-81
2021/07/31 03:45:55;;;;;;;8.75;6.00;;;;;;;;;;5106721;28;38966;-81
2021/07/31 03:48:21;;;;;;;13.75;5.82;;;;;;;;;;5107232;28;37624;-81
2021/07/31 03:50:49;;;;;;;10.77;5.65;;;;;;;;;;5104368;28;38970;-81
2021/07/31 03:53:20;;;;;;;10.13;6.28;;;;;;;;;;5090195;28;37513;-81
2021/07/31 03:55:47;;;;;;;12.73;6.13;;;;;;;;;;5091399;28;39734;-80
2021/07/31 03:58:13;;;;;;;11.35;5.25;;;;;;;;;;5109847;28;39442;-81
2021/07/31 04:00:47;;;;;;;7.28;4.40;;;;;;;;;;5109218;28;38118;-81
2021/07/31 04:03:23;;;;;;;9.68;4.70;;;;;;;;;;5110281;28;37853;-81
2021/07/31 04:05:51;;;;;;;12.27;4.60;;;;;;;;;;5112392;28;38550;-81
2021/07/31 04:08:18;;;;;;;14.77;4.90;;;;;;;;;;5111209;28;37190;-81
2021/07/31 04:10:45;;;;;;;11.18;4.22;;;;;;;;;;5112711;28;37201;-81
2021/07/31 04:13:12;;;;;;;10.85;5.03;;;;;;;;;;5095884;28;36581;-81
2021/07/31 04:15:41;;;;;;;11.07;3.92;;;;;;;;;;5091387;28;38690;-81
2021/07/31 04:18:07;;;;;;;8.20;4.45;;;;;;;;;;5090843;28;39253;-81
2021/07/31 04:20:34;;;;;;;6.93;4.05;;;;;;;;;;5089151;28;38635;-81
2021/07/31 04:23:00;;;;;;;9.18;3.97;;;;;;;;;;5089683;28;36575;-81
2021/07/31 04:25:27;;;;;;;7.95;3.63;;;;;;;;;;5088132;28;38833;-80
2021/07/31 04:27:53;;;;;;;7.15;3.70;;;;;;;;;;5092650;28;39359;-79
2021/07/31 04:30:20;;;;;;;8.40;3.67;;;;;;;;;;5088586;28;39163;-80
2021/07/31 04:32:52;;;;;;;9.50;3.75;;;;;;;;;;5109747;28;36786;-81
2021/07/31 04:35:22;;;;;;;9.07;2.92;;;;;;;;;;5110878;28;38678;-80
2021/07/31 04:37:48;;;;;;;7.47;3.40;;;;;;;;;;5109591;28;38842;-80
2021/07/31 04:40:15;;;;;;;9.32;3.78;;;;;;;;;;5106811;28;38654;-81
2021/07/31 04:42:42;;;;;;;7.07;3.70;;;;;;;;;;5110833;28;35957;-81
2021/07/31 04:45:10;;;;;;;7.25;3.90;;;;;;;;;;5110329;28;39323;-81
2021/07/31 04:47:40;;;;;;;12.60;3.33;;;;;;;;;;5113127;28;39921;-81
2021/07/31 04:50:07;;;;;;;7.47;3.47;;;;;;;;;;5108383;28;39671;-81
2021/07/31 04:52:37;;;;;;;7.70;3.58;;;;;;;;;;5114120;28;35811;-81
2021/07/31 04:55:05;;;;;;;6.05;3.20;;;;;;;;;;5112305;28;39064;-81
2021/07/31 04:57:31;;;;;;;11.07;3.78;;;;;;;;;;5097820;28;48468;-81
2021/07/31 04:59:58;;;;;;;8.73;3.30;;;;;;;;;;5111806;28;37212;-80
2021/07/31 05:02:24;;;;;;;7.10;3.30;;;;;;;;;;5114592;28;37371;-81
2021/07/31 05:05:00;;;;;;;5.30;2.67;;;;;;;;;;5113115;28;38051;-81
2021/07/31 05:07:27;;;;;;;9.30;3.53;;;;;;;;;;5114258;28;40505;-80
2021/07/31 05:09:56;;;;;;;8.25;3.10;;;;;;;;;;5111599;28;38412;-81
2021/07/31 05:12:25;;;;;;;6.40;2.70;;;;;;;;;;5115207;28;37466;-81
2021/07/31 05:14:52;;;;;;;7.85;2.67;;;;;;;;;;5108887;28;40181;-81
2021/07/31 05:17:25;;;;;;;10.95;3.15;;;;;;;;;;5112774;27;38860;-81
2021/07/31 05:19:51;;;;;;;9.38;2.42;;;;;;;;;;5113862;28;38382;-81
2021/07/31 05:22:18;;;;;;;4.60;2.25;;;;;;;;;;5113283;28;35996;-80
2021/07/31 05:24:48;;;;;;;5.15;2.40;;;;;;;;;;5116847;28;38933;-80
2021/07/31 05:30:12;;;;;;;6.10;2.88;;;;;;;;;;5104935;22;38767;-81
2021/07/31 05:32:39;;;;;;;7.45;2.33;;;;;;;;;;5083892;28;37615;-81
2021/07/31 05:35:06;;;;;;;5.00;2.63;;;;;;;;;;5084585;28;39816;-77
2021/07/31 05:37:33;;;;;;;5.82;3.03;;;;;;;;;;5081887;28;38811;-81
2021/07/31 05:40:00;;;;;;;6.63;2.55;;;;;;;;;;5078478;28;39667;-81
2021/07/31 05:42:26;;;;;;;7.07;2.28;;;;;;;;;;5080136;28;36723;-79
2021/07/31 05:45:11;;;;;;;6.13;2.28;;;;;;;;;;5057561;28;40514;-81
2021/07/31 05:47:37;;;;;;;3.38;1.80;;;;;;;;;;5070519;28;48767;-81
2021/07/31 05:50:07;;;;;;;7.05;2.50;;;;;;;;;;5053484;28;38868;-79
2021/07/31 05:52:37;;;;;;;5.90;2.15;;;;;;;;;;5073991;28;49168;-78
2021/07/31 05:55:04;;;;;;;3.95;1.90;;;;;;;;;;5075206;28;38932;-78
2021/07/31 05:57:31;;;;;;;3.38;1.83;;;;;;;;;;5072357;28;50111;-79
2021/07/31 05:59:57;;;;;;;6.88;1.92;;;;;;;;;;5053996;28;39991;-78
2021/07/31 06:02:24;;;;;;;6.78;1.80;;;;;;;;;;5071205;28;37292;-80
2021/07/31 06:04:50;;;;;;;5.88;1.85;;;;;;;;;;5052984;28;38333;-80
2021/07/31 06:07:17;;;;;;;5.82;1.83;;;;;;;;;;5068711;28;38440;-80
2021/07/31 06:09:46;;;;;;;3.13;1.67;;;;;;;;;;5069281;28;39456;-78
2021/07/31 06:12:12;;;;;;;5.13;1.67;;;;;;;;;;5061978;28;37224;-77
2021/07/31 06:14:40;;;;;;;4.75;1.45;;;;;;;;;;5048717;28;38613;-77
2021/07/31 06:17:07;;;;;;;4.97;1.77;;;;;;;;;;5030188;28;39066;-77
2021/07/31 06:19:34;;;;;;;4.43;1.50;;;;;;;;;;5041332;28;38740;-77
2021/07/31 06:22:01;;;;;;;3.88;1.42;;;;;;;;;;5069290;28;37118;-78
2021/07/31 06:24:28;;;;;;;6.10;1.85;;;;;;;;;;5068470;28;48551;-77
2021/07/31 06:26:55;;;;;;;4.00;1.70;;;;;;;;;;5049882;28;38973;-77
2021/07/31 06:29:21;;;;;;;7.20;1.73;;;;;;;;;;5067381;28;39051;-78
2021/07/31 06:31:49;;;;;;;4.57;1.75;;;;;;;;;;5065471;28;37401;-78
2021/07/31 06:34:15;;;;;;;7.18;1.65;;;;;;;;;;5066638;28;39774;-77
2021/07/31 06:36:42;;;;;;;5.07;2.00;;;;;;;;;;5077924;28;38471;-78
2021/07/31 06:39:09;;;;;;;5.50;1.90;;;;;;;;;;5076375;28;38290;-77
2021/07/31 06:41:35;;;;;;;5.95;1.83;;;;;;;;;;5064981;28;36599;-78
2021/07/31 06:44:02;;;;;;;4.43;1.83;;;;;;;;;;5068639;28;40039;-74
2021/07/31 06:46:29;;;;;;;5.90;2.08;;;;;;;;;;5066200;28;38878;-77
2021/07/31 06:48:56;;;;;;;4.50;1.83;;;;;;;;;;5067133;28;38979;-78
2021/07/31 06:51:23;;;;;;;8.68;1.80;;;;;;;;;;5068997;28;36517;-77
2021/07/31 06:53:50;;;;;;;4.80;1.75;;;;;;;;;;5070101;28;39457;-77
2021/07/31 06:56:17;;;;;;;4.85;1.65;;;;;;;;;;5072017;28;38083;-79
2021/07/31 06:58:43;;;;;;;4.28;1.65;;;;;;;;;;5056531;28;38901;-78
2021/07/31 07:01:10;;;;;;;5.75;1.75;;;;;;;;;;5050612;28;37133;-81
2021/07/31 07:03:37;;;;;;;7.13;1.80;;;;;;;;;;5051010;28;39564;-78
2021/07/31 07:06:04;;;;;;;5.18;1.63;;;;;;;;;;5067656;28;39242;-77
2021/07/31 07:08:30;;;;;;;5.00;1.80;;;;;;;;;;5066481;28;38479;-77
2021/07/31 07:10:57;;;;;;;8.45;1.70;;;;;;;;;;5066621;28;36923;-77
2021/07/31 07:13:23;;;;;;;3.15;1.42;;;;;;;;;;5046489;28;40392;-77
2021/07/31 07:15:49;;;;;;;3.85;1.30;;;;;;;;;;5044622;28;39012;-77
2021/07/31 07:18:16;;;;;;;4.25;1.50;;;;;;;;;;5047517;28;39374;-77
2021/07/31 07:20:42;;;;;;;4.47;1.27;;;;;;;;;;5052525;28;38105;-77
2021/07/31 07:23:09;;;;;;;4.50;1.60;;;;;;;;;;5049806;28;39879;-77
2021/07/31 07:25:36;;;;;;;4.00;1.50;;;;;;;;;;5048806;28;39263;-77
2021/07/31 07:28:03;;;;;;;5.80;1.67;;;;;;;;;;5083290;28;39786;-77
2021/07/31 07:30:29;;;;;;;2.53;1.15;;;;;;;;;;5074621;28;35949;-77
2021/07/31 07:32:56;;;;;;;4.13;1.83;;;;;;;;;;5069154;28;39979;-77
2021/07/31 07:35:22;;;;;;;4.28;1.33;;;;;;;;;;5067685;28;38148;-77
2021/07/31 07:37:49;;;;;;;6.88;1.70;;;;;;;;;;5053260;28;39953;-77
2021/07/31 07:40:17;;;;;;;7.38;1.83;;;;;;;;;;5069589;28;38169;-77
2021/07/31 07:42:43;;;;;;;2.85;1.35;;;;;;;;;;5070002;28;38620;-77
2021/07/31 07:45:10;;;;;;;4.25;1.65;;;;;;;;;;5085616;28;38962;-77
2021/07/31 07:47:36;;;;;;;5.60;1.90;;;;;;;;;;5081618;28;36473;-77
2021/07/31 07:50:03;;;;;;;6.63;2.10;;;;;;;;;;5072245;28;37653;-74
2021/07/31 07:52:30;;;;;;;4.93;2.03;;;;;;;;;;5085892;28;41118;-80
2021/07/31 07:54:56;;;;;;;4.22;1.90;;;;;;;;;;5086339;28;40293;-80
2021/07/31 07:57:22;;;;;;;3.60;1.85;;;;;;;;;;5077831;28;39000;-81
2021/07/31 07:59:49;;;;;;;4.60;1.80;;;;;;;;;;5080040;28;36939;-81
2021/07/31 08:02:16;;;;;;;4.68;2.10;;;;;;;;;;5103433;27;37642;-80
2021/07/31 08:04:44;;;;;;;4.05;1.80;;;;;;;;;;5109165;28;38416;-81
2021/07/31 08:07:11;;;;;;;7.97;2.42;;;;;;;;;;5099784;27;36759;-80
2021/07/31 08:09:38;;;;;;;3.63;2.22;;;;;;;;;;5092891;28;35831;-81
2021/07/31 08:12:08;;;;;;;4.68;2.42;;;;;;;;;;5042970;28;40118;-79
2021/07/31 08:14:35;;;;;;;3.67;2.42;;;;;;;;;;5042688;28;39588;-80
2021/07/31 08:17:02;;;;;;;7.72;3.53;;;;;;;;;;5058729;28;38460;-75
2021/07/31 08:19:29;;;;;;;7.57;2.30;;;;;;;;;;5074755;28;36722;-79
2021/07/31 08:21:55;;;;;;;8.23;2.53;;;;;;;;;;5075705;28;38741;-78
2021/07/31 08:24:21;;;;;;;5.72;2.28;;;;;;;;;;5076008;28;38962;-79
2021/07/31 08:26:48;;;;;;;7.13;2.42;;;;;;;;;;5056428;28;36845;-78
2021/07/31 08:29:15;;;;;;;6.18;2.90;;;;;;;;;;5076967;28;37036;-78
2021/07/31 08:31:41;;;;;;;8.23;2.78;;;;;;;;;;5073608;28;39126;-78
2021/07/31 08:34:08;;;;;;;6.28;2.45;;;;;;;;;;5077414;28;39733;-79
2021/07/31 08:36:35;;;;;;;6.00;2.88;;;;;;;;;;5075970;28;38027;-79
2021/07/31 08:39:01;;;;;;;7.85;3.15;;;;;;;;;;5076248;28;37196;-78
2021/07/31 08:41:28;;;;;;;6.00;2.78;;;;;;;;;;5058206;28;46805;-79
2021/07/31 08:43:57;;;;;;;5.70;2.50;;;;;;;;;;5078850;28;38387;-79
2021/07/31 08:46:24;;;;;;;6.88;2.65;;;;;;;;;;5079839;28;38052;-78
2021/07/31 08:48:52;;;;;;;7.60;2.63;;;;;;;;;;5082395;28;35569;-79
2021/07/31 08:51:20;;;;;;;6.28;2.92;;;;;;;;;;5079406;28;39651;-78
2021/07/31 08:53:46;;;;;;;4.65;2.30;;;;;;;;;;5094228;28;37226;-79
2021/07/31 08:56:12;;;;;;;8.10;3.10;;;;;;;;;;5095599;28;37758;-78
2021/07/31 08:58:42;;;;;;;4.88;2.50;;;;;;;;;;5091142;28;35601;-78
2021/07/31 09:01:09;;;;;;;8.13;3.38;;;;;;;;;;5090060;27;38978;-79
2021/07/31 09:03:51;;;;;;;4.53;2.80;;;;;;;;;;5091136;28;38202;-77
2021/07/31 09:06:31;;;;;;;5.97;2.67;;;;;;;;;;5049903;28;38862;-78
2021/07/31 09:08:58;;;;;;;5.85;3.13;;;;;;;;;;5064362;28;37111;-79
2021/07/31 09:11:25;;;;;;;6.68;3.10;;;;;;;;;;5072695;28;39485;-77
2021/07/31 09:14:11;;;;;;;8.88;3.08;;;;;;;;;;5072240;28;38638;-78
2021/07/31 09:16:38;;;;;;;8.65;3.15;;;;;;;;;;5071251;28;49347;-78
2021/07/31 09:19:08;;;;;;;5.18;2.50;;;;;;;;;;5053606;28;37340;-78
2021/07/31 09:21:34;;;;;;;5.45;2.70;;;;;;;;;;5052646;28;39343;-78
2021/07/31 09:24:01;;;;;;;6.15;2.75;;;;;;;;;;5054136;28;39687;-77
2021/07/31 09:26:37;;;;;;;5.07;2.70;;;;;;;;;;5074846;28;49324;-79
2021/07/31 09:29:05;;;;;;;4.50;2.40;;;;;;;;;;5076098;28;36908;-80
2021/07/31 09:31:32;;;;;;;8.25;3.03;;;;;;;;;;5069411;28;48160;-78
2021/07/31 09:34:00;;;;;;;5.53;2.63;;;;;;;;;;5072265;28;38880;-79
2021/07/31 09:36:35;;;;;;;10.02;2.85;;;;;;;;;;5071114;28;37170;-78
2021/07/31 09:39:01;;;;;;;5.05;2.08;;;;;;;;;;5074436;28;37162;-80
2021/07/31 09:41:34;;;;;;;3.85;2.47;;;;;;;;;;5056891;28;46539;-79
2021/07/31 09:44:01;;;;;;;7.63;2.47;;;;;;;;;;5090106;28;39888;-80
2021/07/31 09:46:38;;;;;;;4.93;2.38;;;;;;;;;;5094118;28;48937;-78
2021/07/31 09:49:06;;;;;;;5.13;2.67;;;;;;;;;;5094666;28;36520;-80
2021/07/31 09:51:51;;;;;;;5.70;2.72;;;;;;;;;;5093788;27;39027;-79
2021/07/31 09:54:19;;;;;;;8.30;2.90;;;;;;;;;;5096215;28;38688;-81
2021/07/31 09:56:47;;;;;;;2.97;2.42;;;;;;;;;;5094050;27;38938;-79
2021/07/31 09:59:15;;;;;;;3.53;2.42;;;;;;;;;;5092990;28;37142;-80
2021/07/31 10:01:42;;;;;;;3.65;2.40;;;;;;;;;;5051582;28;40357;-78
2021/07/31 10:04:09;;;;;;;7.97;2.40;;;;;;;;;;5035956;28;38210;-79
2021/07/31 10:06:35;;;;;;;7.53;2.33;;;;;;;;;;5067738;28;39506;-80
2021/07/31 10:09:02;;;;;;;5.85;2.58;;;;;;;;;;5053697;28;38569;-76
2021/07/31 10:11:29;;;;;;;5.07;2.15;;;;;;;;;;5054436;28;39495;-79
2021/07/31 10:13:59;;;;;;;3.90;2.45;;;;;;;;;;5056081;28;39017;-80
2021/07/31 10:16:25;;;;;;;4.20;2.08;;;;;;;;;;5074751;28;38362;-80
2021/07/31 10:18:59;;;;;;;7.07;2.45;;;;;;;;;;5054537;28;37011;-80
2021/07/31 10:21:26;;;;;;;4.25;1.95;;;;;;;;;;5071620;28;38729;-79
2021/07/31 10:24:00;;;;;;;3.42;1.83;;;;;;;;;;5055708;28;39221;-80
2021/07/31 10:26:27;;;;;;;7.82;2.22;;;;;;;;;;5075361;28;48067;-80
2021/07/31 10:28:54;;;;;;;4.72;1.70;;;;;;;;;;5076657;28;38139;-79
2021/07/31 10:31:33;;;;;;;3.25;2.00;;;;;;;;;;5074501;28;39234;-80
2021/07/31 10:34:00;;;;;;;5.97;2.25;;;;;;;;;;5076592;28;38836;-79
2021/07/31 10:36:38;;;;;;;4.53;2.17;;;;;;;;;;5075353;28;39518;-80
2021/07/31 10:39:23;;;;;;;5.40;1.90;;;;;;;;;;5078319;28;38064;-80
2021/07/31 10:41:56;;;;;;;3.28;1.70;;;;;;;;;;5079573;28;41050;-80
2021/07/31 10:44:23;;;;;;;5.60;1.58;;;;;;;;;;5073379;28;39418;-79
2021/07/31 10:46:51;;;;;;;2.30;1.50;;;;;;;;;;5076069;28;38408;-79
2021/07/31 10:49:36;;;;;;;6.43;1.63;;;;;;;;;;5074559;28;38114;-80
2021/07/31 10:52:03;;;;;;;5.53;1.83;;;;;;;;;;5088438;27;39701;-78
2021/07/31 10:54:48;;;;;;;6.25;1.58;;;;;;;;;;5090590;28;38512;-79
2021/07/31 10:57:14;;;;;;;4.28;2.05;;;;;;;;;;5091285;28;39280;-79
2021/07/31 10:59:40;;;;;;;2.40;1.58;;;;;;;;;;5092536;28;37545;-79
2021/07/31 11:02:25;;;;;;;4.57;1.67;;;;;;;;;;5087601;28;38437;-79
2021/07/31 11:04:58;;;;;;;3.90;1.70;;;;;;;;;;5082753;28;38590;-79
2021/07/31 11:07:27;;;;;;;1.77;1.50;;;;;;;;;;5069711;28;38760;-80
2021/07/31 11:10:12;;;;;;;3.75;1.73;;;;;;;;;;5070626;28;37236;-79
2021/07/31 11:12:43;;;;;;;3.47;1.77;;;;;;;;;;5071334;28;48539;-79
2021/07/31 11:15:10;;;;;;;4.32;2.20;;;;;;;;;;5072842;28;39369;-80
2021/07/31 11:17:37;;;;;;;5.00;2.22;;;;;;;;;;5058397;28;36721;-80
2021/07/31 11:20:24;;;;;;;4.82;1.88;;;;;;;;;;5071500;28;37351;-78
2021/07/31 11:22:51;;;;;;;3.88;2.10;;;;;;;;;;5046933;28;47124;-80
2021/07/31 11:25:20;;;;;;;3.92;1.80;;;;;;;;;;5053039;28;39887;-80
2021/07/31 11:27:56;;;;;;;4.88;1.70;;;;;;;;;;5069218;28;38424;-80
2021/07/31 11:30:33;;;;;;;2.95;1.75;;;;;;;;;;5069063;28;37187;-79
2021/07/31 11:33:12;;;;;;;1.83;1.60;;;;;;;;;;5069028;28;39897;-79
2021/07/31 11:35:38;;;;;;;8.50;1.60;;;;;;;;;;5071027;28;48669;-79
2021/07/31 11:38:24;;;;;;;3.97;1.60;;;;;;;;;;5072805;28;38690;-79
2021/07/31 11:41:07;;;;;;;6.80;2.17;;;;;;;;;;5051457;28;37274;-79
2021/07/31 11:43:45;;;;;;;8.48;2.03;;;;;;;;;;5055351;28;47198;-80
2021/07/31 11:46:11;;;;;;;4.32;2.17;;;;;;;;;;5051537;28;38730;-79
2021/07/31 11:48:38;;;;;;;4.00;2.05;;;;;;;;;;5052052;28;38946;-79
2021/07/31 11:51:05;;;;;;;4.55;2.00;;;;;;;;;;5069699;28;35557;-79
2021/07/31 11:53:32;;;;;;;5.63;2.22;;;;;;;;;;5068465;28;39280;-79
2021/07/31 11:56:17;;;;;;;8.70;2.10;;;;;;;;;;5069040;28;38450;-79
2021/07/31 11:58:44;;;;;;;9.18;2.40;;;;;;;;;;5075303;28;49636;-79
2021/07/31 12:01:11;;;;;;;4.25;2.13;;;;;;;;;;5087852;28;37218;-79
2021/07/31 12:03:44;;;;;;;7.18;2.30;;;;;;;;;;5088996;28;39168;-78
2021/07/31 12:06:30;;;;;;;5.72;1.92;;;;;;;;;;5068791;28;38686;-79
2021/07/31 12:09:01;;;;;;;4.72;1.63;;;;;;;;;;5073262;28;38869;-79
2021/07/31 12:11:40;;;;;;;4.05;1.95;;;;;;;;;;5070538;28;48649;-78
2021/07/31 12:14:25;;;;;;;2.78;1.70;;;;;;;;;;5073174;28;39172;-79
2021/07/31 12:16:52;;;;;;;4.80;1.98;;;;;;;;;;5087533;28;39711;-79
2021/07/31 12:19:19;;;;;;;7.75;3.80;;;;;;;;;;5091292;28;40129;-79
2021/07/31 12:21:45;;;;;;;5.00;2.08;;;;;;;;;;5090816;27;37533;-79
2021/07/31 12:24:18;;;;;;;5.50;2.83;;;;;;;;;;5092012;28;39067;-79
2021/07/31 12:26:53;;;;;;;4.53;2.10;;;;;;;;;;5095605;27;38823;-79
2021/07/31 12:29:39;;;;;;;7.07;2.47;;;;;;;;;;5093412;28;38357;-79
2021/07/31 12:32:21;;;;;;;5.07;2.00;;;;;;;;;;5070751;28;37247;-79
2021/07/31 12:34:48;;;;;;;4.22;1.95;;;;;;;;;;5058531;28;40393;-80
2021/07/31 12:37:14;;;;;;;5.03;1.70;;;;;;;;;;5076725;28;39917;-78
2021/07/31 12:39:40;;;;;;;2.85;1.50;;;;;;;;;;5077005;28;39675;-76
2021/07/31 12:42:09;;;;;;;4.55;1.73;;;;;;;;;;5076201;28;37321;-78
2021/07/31 12:44:36;;;;;;;4.95;2.00;;;;;;;;;;5075623;28;40803;-78
2021/07/31 12:47:03;;;;;;;3.72;1.73;;;;;;;;;;5071644;28;38145;-76
2021/07/31 12:49:29;;;;;;;2.50;1.60;;;;;;;;;;5074199;28;38045;-78
2021/07/31 12:51:56;;;;;;;3.75;1.70;;;;;;;;;;5092978;27;36571;-78
2021/07/31 12:54:22;;;;;;;5.47;2.28;;;;;;;;;;5094352;28;40109;-81
2021/07/31 12:56:48;;;;;;;4.47;3.05;;;;;;;;;;5078917;28;38755;-76
2021/07/31 12:59:15;;;;;;;5.72;2.00;;;;;;;;;;5055924;28;38287;-78
2021/07/31 13:01:41;;;;;;;5.13;1.90;;;;;;;;;;5052714;28;35617;-77
2021/07/31 13:04:07;;;;;;;5.18;1.85;;;;;;;;;;5070850;28;39027;-78
2021/07/31 13:06:35;;;;;;;5.18;1.92;;;;;;;;;;5050794;28;39603;-79
2021/07/31 13:09:01;;;;;;;2.65;1.75;;;;;;;;;;5054562;28;40198;-77
2021/07/31 13:11:28;;;;;;;5.20;2.00;;;;;;;;;;5067916;28;38575;-79
2021/07/31 13:13:54;;;;;;;4.28;1.52;;;;;;;;;;5067502;28;39134;-76
2021/07/31 13:16:20;;;;;;;2.83;1.75;;;;;;;;;;5072260;28;39267;-77
2021/07/31 13:18:47;;;;;;;4.35;2.05;;;;;;;;;;5088930;28;39223;-78
2021/07/31 13:21:13;;;;;;;5.47;3.08;;;;;;;;;;5070013;27;36269;-80
2021/07/31 13:23:40;;;;;;;6.82;1.83;;;;;;;;;;5086912;28;39057;-79
2021/07/31 13:26:06;;;;;;;5.45;1.80;;;;;;;;;;5050563;28;39808;-79
2021/07/31 13:28:34;;;;;;;5.07;1.88;;;;;;;;;;5049968;28;38113;-78
2021/07/31 13:31:00;;;;;;;5.90;1.60;;;;;;;;;;5048340;28;37397;-80
2021/07/31 13:33:27;;;;;;;1.58;1.42;;;;;;;;;;5064657;28;39728;-80
2021/07/31 13:35:53;;;;;;;3.72;1.67;;;;;;;;;;5067949;28;38571;-80
2021/07/31 13:38:20;;;;;;;4.45;1.48;;;;;;;;;;5069142;28;38227;-80
2021/07/31 13:40:47;;;;;;;2.78;1.60;;;;;;;;;;5069439;28;37091;-80
2021/07/31 13:43:18;;;;;;;4.65;1.67;;;;;;;;;;5070066;28;38773;-77
2021/07/31 13:45:45;;;;;;;3.03;1.63;;;;;;;;;;5052200;28;39588;-77
2021/07/31 13:48:12;;;;;;;3.88;1.45;;;;;;;;;;5070430;28;39343;-77
2021/07/31 13:50:38;;;;;;;1.98;1.35;;;;;;;;;;5067426;28;36827;-77
2021/07/31 13:53:04;;;;;;;3.83;1.50;;;;;;;;;;5068837;28;40627;-77
2021/07/31 13:55:31;;;;;;;4.53;1.63;;;;;;;;;;5064816;28;38703;-77
2021/07/31 13:57:57;;;;;;;1.77;1.33;;;;;;;;;;5068240;28;39013;-77
2021/07/31 14:00:23;;;;;;;3.60;1.50;;;;;;;;;;5067955;28;37919;-78
2021/07/31 14:02:50;;;;;;;2.35;1.52;;;;;;;;;;5069320;28;38890;-78
2021/07/31 14:05:17;;;;;;;3.35;1.50;;;;;;;;;;5066602;28;38450;-77
2021/07/31 14:07:46;;;;;;;3.08;1.40;;;;;;;;;;5063596;28;38687;-77
2021/07/31 14:10:13;;;;;;;3.53;1.58;;;;;;;;;;5048427;28;36946;-78
2021/07/31 14:12:40;;;;;;;5.82;1.90;;;;;;;;;;5032790;28;39612;-77
2021/07/31 14:15:06;;;;;;;5.88;1.85;;;;;;;;;;5039110;28;38813;-76
2021/07/31 14:17:33;;;;;;;3.63;1.90;;;;;;;;;;5053580;28;39697;-81
2021/07/31 14:19:59;;;;;;;3.85;1.73;;;;;;;;;;5051451;28;37502;-80
2021/07/31 14:22:27;;;;;;;1.85;1.50;;;;;;;;;;5050053;28;37615;-80
2021/07/31 14:24:53;;;;;;;4.13;1.63;;;;;;;;;;5067954;28;38066;-79
2021/07/31 14:27:19;;;;;;;3.15;1.77;;;;;;;;;;5068539;28;37974;-79
2021/07/31 14:29:46;;;;;;;2.33;1.40;;;;;;;;;;5045060;28;38164;-77
2021/07/31 14:32:12;;;;;;;3.70;1.30;;;;;;;;;;5068855;28;39111;-78
2021/07/31 14:34:38;;;;;;;2.38;1.52;;;;;;;;;;5047228;28;37966;-78
2021/07/31 14:37:05;;;;;;;2.50;1.48;;;;;;;;;;5062632;28;37750;-78
2021/07/31 14:39:33;;;;;;;1.73;1.30;;;;;;;;;;5047130;28;37964;-77
2021/07/31 14:41:59;;;;;;;2.80;1.50;;;;;;;;;;5046068;28;39829;-78
2021/07/31 14:44:25;;;;;;;4.03;1.30;;;;;;;;;;5046580;28;39471;-77
2021/07/31 14:46:52;;;;;;;3.97;1.80;;;;;;;;;;5045267;28;39183;-78
2021/07/31 14:49:18;;;;;;;2.97;2.05;;;;;;;;;;5055759;28;35932;-79
2021/07/31 14:51:45;;;;;;;2.33;1.77;;;;;;;;;;5081315;28;39707;-78